createdAt,value
2023-04-21T00:01:21.054Z,21.97
2023-04-21T00:03:42.985Z,21.70
2023-04-21T00:06:07.458Z,22.83
2023-04-21T00:08:28.523Z,21.30
2023-04-21T00:10:49.681Z,20.67
2023-04-21T00:13:10.932Z,22.47
2023-04-21T00:15:32.369Z,21.30
2023-04-21T00:17:53.797Z,21.63
2023-04-21T00:20:15.431Z,23.20
2023-04-21T00:22:37.983Z,22.90
2023-04-21T00:24:59.401Z,21.40
2023-04-21T00:27:20.442Z,21.53
2023-04-21T00:29:41.561Z,20.77
2023-04-21T00:32:03.840Z,21.37
2023-04-21T00:34:25.175Z,20.80
2023-04-21T00:36:46.474Z,21.83
2023-04-21T00:39:09.701Z,21.20
2023-04-21T00:41:30.980Z,21.70
2023-04-21T00:44:01.204Z,22.40
2023-04-21T00:46:22.384Z,21.33
2023-04-21T00:48:43.637Z,22.17
2023-04-21T00:51:05.137Z,21.37
2023-04-21T00:53:26.416Z,21.07
2023-04-21T00:55:49.026Z,20.97
2023-04-21T00:58:10.194Z,20.43
2023-04-21T01:00:31.729Z,20.53
2023-04-21T01:02:52.977Z,22.17
2023-04-21T01:05:14.552Z,22.40
2023-04-21T01:07:36.021Z,21.20
2023-04-21T01:09:57.464Z,22.57
2023-04-21T01:12:20.458Z,23.07
2023-04-21T01:14:42.106Z,23.27
2023-04-21T01:17:05.188Z,21.50
2023-04-21T01:19:27.696Z,23.87
2023-04-21T01:21:50.260Z,23.47
2023-04-21T01:24:11.604Z,23.10
2023-04-21T01:26:32.644Z,22.93
2023-04-21T01:28:57.377Z,24.07
2023-04-21T01:31:21.117Z,21.40
2023-04-21T01:33:42.460Z,21.53
2023-04-21T01:36:03.871Z,21.27
2023-04-21T01:38:26.431Z,19.53
2023-04-21T01:40:48.745Z,20.63
2023-04-21T01:43:10.354Z,20.70
2023-04-21T01:45:31.712Z,22.33
2023-04-21T01:47:53.098Z,22.63
2023-04-21T01:50:14.584Z,20.57
2023-04-21T01:52:35.611Z,22.50
2023-04-21T01:54:58.229Z,20.67
2023-04-21T01:57:19.849Z,22.30
2023-04-21T01:59:40.969Z,20.47
2023-04-21T02:02:02.362Z,21.23
2023-04-21T02:04:23.883Z,20.93
2023-04-21T02:06:45.941Z,20.57
2023-04-21T02:09:07.061Z,21.63
2023-04-21T02:11:30.222Z,22.80
2023-04-21T02:13:51.632Z,20.67
2023-04-21T02:16:14.228Z,20.20
2023-04-21T02:18:40.197Z,20.93
2023-04-21T02:21:03.236Z,22.57
2023-04-21T02:23:24.412Z,21.97
2023-04-21T02:25:45.808Z,20.70
2023-04-21T02:28:08.427Z,19.37
2023-04-21T02:30:29.994Z,18.50
2023-04-21T02:32:51.337Z,21.67
2023-04-21T02:35:12.560Z,20.37
2023-04-21T02:37:34.271Z,20.63
2023-04-21T02:39:55.284Z,19.67
2023-04-21T02:42:16.635Z,21.00
2023-04-21T02:44:39.861Z,21.63
2023-04-21T02:47:01.040Z,22.03
2023-04-21T02:49:22.245Z,20.30
2023-04-21T02:51:43.687Z,20.43
2023-04-21T02:54:04.930Z,21.80
2023-04-21T02:56:25.964Z,20.50
2023-04-21T02:58:47.288Z,20.30
2023-04-21T03:01:10.198Z,22.37
2023-04-21T03:03:32.181Z,21.57
2023-04-21T03:05:57.212Z,23.10
2023-04-21T03:08:18.387Z,22.80
2023-04-21T03:10:39.814Z,22.10
2023-04-21T03:13:01.280Z,23.53
2023-04-21T03:15:22.730Z,23.43
2023-04-21T03:17:45.268Z,23.33
2023-04-21T03:20:08.344Z,21.13
2023-04-21T03:22:29.604Z,22.27
2023-04-21T03:24:51.286Z,20.30
2023-04-21T03:27:12.625Z,20.03
2023-04-21T03:29:34.033Z,19.87
2023-04-21T03:31:55.383Z,16.97
2023-04-21T03:34:18.003Z,17.53
2023-04-21T03:36:39.238Z,18.53
2023-04-21T03:39:12.676Z,18.57
2023-04-21T03:41:34.548Z,18.63
2023-04-21T03:43:55.808Z,17.93
2023-04-21T03:46:20.542Z,18.27
2023-04-21T03:48:41.510Z,19.10
2023-04-21T03:51:04.545Z,20.30
2023-04-21T03:53:25.652Z,18.77
2023-04-21T03:55:48.832Z,22.23
2023-04-21T03:58:10.198Z,20.13
2023-04-21T04:00:31.464Z,19.33
2023-04-21T04:02:53.007Z,19.83
2023-04-21T04:05:14.371Z,19.07
2023-04-21T04:07:36.948Z,19.13
2023-04-21T04:10:00.684Z,18.73
2023-04-21T04:12:21.684Z,21.50
2023-04-21T04:14:42.934Z,21.17
2023-04-21T04:17:04.469Z,19.97
2023-04-21T04:19:30.910Z,19.57
2023-04-21T04:21:51.937Z,19.63
2023-04-21T04:24:15.777Z,19.63
2023-04-21T04:26:38.736Z,19.93
2023-04-21T04:29:00.455Z,19.83
2023-04-21T04:31:22.466Z,17.93
2023-04-21T04:33:43.892Z,17.77
2023-04-21T04:36:05.316Z,17.13
2023-04-21T04:38:28.284Z,16.10
2023-04-21T04:40:55.620Z,15.13
2023-04-21T04:43:16.926Z,16.73
2023-04-21T04:45:38.844Z,15.83
2023-04-21T04:48:00.255Z,16.93
2023-04-21T04:50:21.766Z,15.50
2023-04-21T04:52:44.854Z,17.57
2023-04-21T04:55:07.363Z,15.47
2023-04-21T04:57:29.898Z,15.77
2023-04-21T04:59:55.273Z,16.67
2023-04-21T05:02:16.976Z,16.73
2023-04-21T05:04:38.814Z,16.60
2023-04-21T05:06:59.821Z,16.67
2023-04-21T05:09:21.004Z,17.03
2023-04-21T05:11:42.459Z,15.83
2023-04-21T05:14:05.278Z,17.20
2023-04-21T05:16:26.311Z,19.10
2023-04-21T05:18:50.894Z,16.23
2023-04-21T05:21:11.838Z,15.60
2023-04-21T05:23:33.467Z,15.57
2023-04-21T05:25:54.393Z,16.10
2023-04-21T05:28:15.891Z,15.77
2023-04-21T05:30:38.348Z,18.70
2023-04-21T05:32:59.698Z,17.60
2023-04-21T05:35:21.000Z,16.83
2023-04-21T05:37:42.254Z,16.90
2023-04-21T05:40:03.968Z,16.60
2023-04-21T05:42:25.282Z,16.17
2023-04-21T05:44:46.592Z,16.37
2023-04-21T05:47:09.172Z,15.53
2023-04-21T05:49:30.155Z,15.60
2023-04-21T05:51:51.320Z,16.30
2023-04-21T05:54:12.643Z,16.50
2023-04-21T05:56:34.012Z,16.37
2023-04-21T05:58:55.227Z,16.17
2023-04-21T06:01:16.497Z,17.83
2023-04-21T06:03:39.038Z,17.87
2023-04-21T06:06:00.651Z,17.23
2023-04-21T06:08:22.084Z,18.00
2023-04-21T06:10:43.492Z,16.77
2023-04-21T06:13:04.908Z,16.77
2023-04-21T06:15:26.274Z,17.67
2023-04-21T06:17:47.929Z,17.50
2023-04-21T06:20:11.686Z,19.77
2023-04-21T06:22:33.067Z,18.07
2023-04-21T06:24:53.951Z,17.13
2023-04-21T06:27:15.760Z,18.13
2023-04-21T06:29:36.990Z,17.77
2023-04-21T06:31:58.375Z,17.10
2023-04-21T06:34:20.933Z,18.07
2023-04-21T06:36:44.008Z,19.23
2023-04-21T06:39:05.569Z,19.23
2023-04-21T06:41:26.716Z,19.53
2023-04-21T06:43:48.292Z,19.50
2023-04-21T06:46:09.441Z,19.40
2023-04-21T06:48:31.003Z,17.83
2023-04-21T06:50:52.051Z,17.77
2023-04-21T06:53:14.795Z,17.77
2023-04-21T06:55:36.425Z,16.80
2023-04-21T06:57:57.571Z,16.37
2023-04-21T07:00:19.030Z,16.73
2023-04-21T07:02:41.723Z,17.53
2023-04-21T07:05:03.051Z,16.53
2023-04-21T07:07:24.449Z,17.37
2023-04-21T07:09:48.409Z,15.53
2023-04-21T07:12:09.635Z,15.80
2023-04-21T07:14:30.904Z,16.30
2023-04-21T07:16:52.279Z,16.93
2023-04-21T07:19:13.506Z,18.27
2023-04-21T07:21:36.293Z,17.17
2023-04-21T07:23:57.812Z,19.37
2023-04-21T07:26:20.528Z,16.47
2023-04-21T07:28:41.903Z,17.23
2023-04-21T07:31:03.700Z,16.93
2023-04-21T07:33:24.970Z,17.10
2023-04-21T07:35:46.484Z,17.30
2023-04-21T07:38:07.662Z,17.77
2023-04-21T07:40:28.930Z,17.20
2023-04-21T07:42:51.542Z,17.83
2023-04-21T07:45:12.924Z,17.63
2023-04-21T07:47:34.635Z,17.53
2023-04-21T07:49:55.875Z,17.83
2023-04-21T07:52:17.197Z,17.70
2023-04-21T07:54:38.596Z,17.33
2023-04-21T07:56:59.957Z,17.30
2023-04-21T07:59:22.707Z,17.90
2023-04-21T08:01:44.068Z,17.87
2023-04-21T08:04:06.292Z,16.80
2023-04-21T08:06:27.684Z,16.67
2023-04-21T08:08:48.934Z,17.03
2023-04-21T08:11:11.031Z,17.73
2023-04-21T08:13:32.949Z,17.47
2023-04-21T08:15:56.174Z,17.83
2023-04-21T08:18:20.590Z,17.17
2023-04-21T08:20:43.542Z,16.87
2023-04-21T08:23:04.669Z,16.83
2023-04-21T08:25:25.878Z,16.33
2023-04-21T08:27:47.283Z,16.60
2023-04-21T08:30:09.226Z,15.77
2023-04-21T08:32:31.860Z,15.67
2023-04-21T08:34:53.714Z,16.57
2023-04-21T08:37:14.646Z,15.80
2023-04-21T08:39:35.838Z,15.90
2023-04-21T08:41:57.995Z,15.30
2023-04-21T08:44:19.498Z,16.07
2023-04-21T08:46:41.128Z,14.83
2023-04-21T08:49:04.200Z,15.33
2023-04-21T08:51:28.229Z,15.07
2023-04-21T08:53:49.182Z,14.43
2023-04-21T08:56:11.825Z,15.07
2023-04-21T08:58:33.265Z,13.93
2023-04-21T09:00:54.576Z,12.80
2023-04-21T09:03:25.910Z,12.67
2023-04-21T09:05:58.409Z,12.90
2023-04-21T09:08:19.884Z,11.90
2023-04-21T09:10:44.046Z,11.90
2023-04-21T09:13:07.929Z,11.90
2023-04-21T09:15:29.213Z,11.73
2023-04-21T09:17:55.752Z,10.80
2023-04-21T09:20:18.025Z,10.40
2023-04-21T09:22:40.817Z,10.17
2023-04-21T09:25:02.075Z,10.63
2023-04-21T09:27:23.313Z,10.70
2023-04-21T09:29:49.118Z,11.23
2023-04-21T09:32:12.770Z,10.73
2023-04-21T09:34:35.481Z,10.83
2023-04-21T09:37:03.064Z,10.73
2023-04-21T09:39:42.681Z,10.60
2023-04-21T09:42:06.957Z,10.73
2023-04-21T09:44:28.322Z,10.20
2023-04-21T09:46:50.424Z,10.27
2023-04-21T09:49:12.752Z,10.00
2023-04-21T09:54:00.024Z,9.40
2023-04-21T09:56:24.005Z,8.67
2023-04-21T09:58:47.703Z,8.60
2023-04-21T10:01:09.579Z,8.40
2023-04-21T10:03:31.903Z,8.70
2023-04-21T10:05:53.496Z,8.73
2023-04-21T10:08:14.877Z,8.80
2023-04-21T10:10:36.266Z,9.60
2023-04-21T10:12:59.329Z,9.30
2023-04-21T10:15:30.854Z,10.27
2023-04-21T10:17:51.971Z,11.00
2023-04-21T10:20:16.576Z,10.57
2023-04-21T10:22:39.653Z,10.83
2023-04-21T10:25:01.495Z,10.63
2023-04-21T10:27:32.081Z,11.80
2023-04-21T10:29:57.161Z,11.70
2023-04-21T10:32:31.947Z,11.70
2023-04-21T10:34:53.077Z,11.10
2023-04-21T10:37:17.474Z,11.07
2023-04-21T10:39:40.086Z,10.60
2023-04-21T10:42:19.639Z,10.47
2023-04-21T10:44:42.759Z,9.43
2023-04-21T10:47:08.467Z,10.03
2023-04-21T10:49:31.150Z,9.93
2023-04-21T10:52:05.478Z,9.33
2023-04-21T10:54:27.384Z,9.13
2023-04-21T10:56:49.108Z,9.70
2023-04-21T10:59:10.519Z,8.80
2023-04-21T11:01:32.416Z,8.63
2023-04-21T11:03:58.433Z,8.87
2023-04-21T11:06:20.219Z,8.27
2023-04-21T11:08:55.801Z,8.63
2023-04-21T11:11:22.598Z,7.67
2023-04-21T11:13:43.958Z,7.93
2023-04-21T11:16:06.980Z,7.87
2023-04-21T11:18:41.379Z,7.33
2023-04-21T11:21:09.896Z,8.03
2023-04-21T11:23:31.055Z,8.17
2023-04-21T11:25:52.382Z,6.87
2023-04-21T11:28:13.624Z,7.80
2023-04-21T11:30:35.778Z,8.07
2023-04-21T11:32:56.977Z,7.13
2023-04-21T11:35:18.365Z,7.10
2023-04-21T11:37:41.217Z,7.13
2023-04-21T11:40:03.376Z,6.30
2023-04-21T11:42:24.777Z,7.20
2023-04-21T11:44:46.037Z,7.20
2023-04-21T11:47:13.900Z,8.20
2023-04-21T11:49:44.490Z,7.63
2023-04-21T11:52:05.433Z,7.40
2023-04-21T11:54:30.666Z,7.47
2023-04-21T11:56:52.019Z,7.30
2023-04-21T11:59:14.070Z,7.20
2023-04-21T12:01:35.445Z,7.57
2023-04-21T12:03:57.194Z,7.80
2023-04-21T12:06:21.402Z,7.77
2023-04-21T12:08:42.507Z,7.17
2023-04-21T12:11:05.237Z,7.20
2023-04-21T12:13:26.481Z,6.87
2023-04-21T12:15:48.232Z,6.83
2023-04-21T12:18:13.813Z,6.47
2023-04-21T12:20:35.628Z,6.80
2023-04-21T12:22:57.572Z,6.00
2023-04-21T12:25:18.794Z,5.60
2023-04-21T12:27:50.052Z,5.77
2023-04-21T12:30:11.823Z,6.23
2023-04-21T12:32:33.185Z,5.47
2023-04-21T12:34:54.489Z,5.50
2023-04-21T12:37:15.859Z,5.07
2023-04-21T12:39:37.309Z,5.23
2023-04-21T12:41:58.793Z,4.53
2023-04-21T12:44:21.207Z,4.57
2023-04-21T12:46:42.282Z,4.13
2023-04-21T12:49:03.804Z,3.90
2023-04-21T12:51:24.982Z,3.87
2023-04-21T12:53:46.322Z,3.57
2023-04-21T12:56:07.713Z,3.40
2023-04-21T12:58:28.927Z,3.50
2023-04-21T13:00:51.691Z,3.30
2023-04-21T13:03:13.193Z,3.33
2023-04-21T13:05:34.510Z,3.50
2023-04-21T13:07:56.172Z,3.10
2023-04-21T13:10:17.219Z,3.30
2023-04-21T13:12:38.615Z,2.83
2023-04-21T13:15:01.354Z,2.90
2023-04-21T13:17:24.059Z,3.40
2023-04-21T13:19:45.333Z,3.80
2023-04-21T13:22:06.563Z,3.20
2023-04-21T13:24:27.852Z,3.50
2023-04-21T13:26:49.330Z,3.10
2023-04-21T13:29:10.385Z,3.80
2023-04-21T13:31:32.257Z,3.37
2023-04-21T13:33:54.814Z,3.60
2023-04-21T13:36:16.188Z,3.60
2023-04-21T13:38:37.592Z,3.10
2023-04-21T13:40:59.208Z,2.87
2023-04-21T13:43:20.614Z,3.10
2023-04-21T13:45:42.133Z,2.97
2023-04-21T13:48:03.729Z,2.90
2023-04-21T13:50:26.583Z,2.73
2023-04-21T13:52:48.073Z,3.00
2023-04-21T13:55:09.796Z,3.00
2023-04-21T13:57:31.178Z,3.07
2023-04-21T13:59:54.236Z,3.27
2023-04-21T14:02:15.729Z,3.20
2023-04-21T14:04:37.745Z,2.83
2023-04-21T14:07:00.759Z,3.43
2023-04-21T14:09:22.132Z,3.00
2023-04-21T14:11:43.478Z,3.10
2023-04-21T14:16:29.329Z,2.90
2023-04-21T14:18:50.473Z,2.97
2023-04-21T14:21:11.962Z,3.23
2023-04-21T14:23:34.627Z,3.37
2023-04-21T14:25:55.623Z,2.80
2023-04-21T14:28:16.957Z,3.00
2023-04-21T14:30:38.545Z,3.27
2023-04-21T14:32:59.381Z,3.83
2023-04-21T14:35:21.240Z,3.90
2023-04-21T14:37:42.567Z,3.23
2023-04-21T14:40:07.393Z,2.80
2023-04-21T14:42:28.648Z,2.90
2023-04-21T14:44:49.976Z,3.10
2023-04-21T14:47:11.564Z,3.10
2023-04-21T14:49:33.318Z,3.20
2023-04-21T14:51:54.884Z,3.50
2023-04-21T14:54:16.829Z,3.47
2023-04-21T14:56:39.660Z,3.30
2023-04-21T14:59:01.109Z,3.20
2023-04-21T15:01:24.533Z,3.10
2023-04-21T15:03:46.904Z,3.17
2023-04-21T15:06:08.391Z,3.40
2023-04-21T15:08:29.483Z,3.27
2023-04-21T15:10:51.266Z,3.40
2023-04-21T15:13:14.088Z,3.10
2023-04-21T15:15:35.231Z,3.60
2023-04-21T15:17:56.500Z,3.40
2023-04-21T15:20:18.788Z,3.20
2023-04-21T15:22:41.186Z,3.20
2023-04-21T15:25:02.498Z,3.30
2023-04-21T15:27:23.769Z,3.43
2023-04-21T15:29:46.159Z,3.13
2023-04-21T15:32:07.417Z,3.17
2023-04-21T15:34:28.764Z,2.80
2023-04-21T15:36:50.147Z,3.37
2023-04-21T15:39:13.911Z,3.30
2023-04-21T15:41:35.378Z,3.20
2023-04-21T15:43:56.933Z,3.80
2023-04-21T15:46:19.783Z,3.63
2023-04-21T15:48:41.280Z,3.10
2023-04-21T15:51:03.071Z,3.50
2023-04-21T15:53:25.017Z,3.43
2023-04-21T15:55:46.244Z,3.07
2023-04-21T15:58:07.438Z,3.97
2023-04-21T16:00:29.590Z,3.17
2023-04-21T16:02:51.968Z,3.67
2023-04-21T16:05:13.730Z,3.30
2023-04-21T16:07:35.112Z,2.93
2023-04-21T16:09:56.404Z,3.03
2023-04-21T16:12:18.311Z,2.83
2023-04-21T16:14:54.616Z,2.90
2023-04-21T16:17:20.578Z,3.00
2023-04-21T16:19:45.504Z,2.57
2023-04-21T16:22:07.157Z,2.50
2023-04-21T16:24:28.466Z,2.50
2023-04-21T16:26:49.706Z,2.27
2023-04-21T16:29:10.970Z,2.00
2023-04-21T16:31:32.552Z,2.30
2023-04-21T16:33:59.402Z,1.90
2023-04-21T16:36:22.138Z,1.90
2023-04-21T16:38:43.397Z,1.87
2023-04-21T16:41:04.774Z,2.03
2023-04-21T16:43:25.819Z,2.03
2023-04-21T16:45:47.142Z,2.00
2023-04-21T16:48:08.896Z,2.20
2023-04-21T16:50:29.910Z,2.07
2023-04-21T16:52:52.323Z,1.93
2023-04-21T16:55:13.614Z,1.90
2023-04-21T16:57:35.055Z,2.17
2023-04-21T16:59:56.355Z,2.70
2023-04-21T17:02:18.086Z,2.33
2023-04-21T17:04:40.010Z,2.70
2023-04-21T17:07:01.383Z,3.00
2023-04-21T17:09:24.139Z,3.30
2023-04-21T17:11:45.941Z,3.70
2023-04-21T17:14:07.238Z,4.03
2023-04-21T17:16:29.299Z,3.80
2023-04-21T17:18:50.517Z,3.90
2023-04-21T17:21:12.531Z,3.77
2023-04-21T17:23:33.719Z,3.80
2023-04-21T17:25:55.904Z,4.57
2023-04-21T17:28:17.222Z,4.53
2023-04-21T17:30:38.526Z,5.10
2023-04-21T17:33:12.666Z,5.13
2023-04-21T17:35:41.496Z,6.30
2023-04-21T17:38:08.003Z,6.00
2023-04-21T17:40:29.364Z,5.93
2023-04-21T17:42:52.138Z,6.33
2023-04-21T17:45:13.577Z,5.80
2023-04-21T17:47:34.661Z,6.50
2023-04-21T17:49:56.010Z,5.97
2023-04-21T17:52:17.507Z,6.70
2023-04-21T17:54:39.160Z,5.90
2023-04-21T17:57:01.629Z,6.37
2023-04-21T17:59:24.205Z,5.23
2023-04-21T18:01:45.206Z,6.20
2023-04-21T18:04:06.696Z,6.57
2023-04-21T18:06:28.825Z,6.37
2023-04-21T18:08:49.970Z,6.30
2023-04-21T18:11:12.169Z,6.40
2023-04-21T18:13:33.998Z,6.80
2023-04-21T18:15:57.849Z,6.77
2023-04-21T18:18:19.446Z,7.00
2023-04-21T18:20:40.802Z,6.73
2023-04-21T18:23:02.160Z,6.60
2023-04-21T18:25:40.659Z,6.53
2023-04-21T18:28:03.197Z,6.27
2023-04-21T18:30:24.475Z,7.30
2023-04-21T18:32:47.101Z,7.20
2023-04-21T18:35:08.437Z,7.60
2023-04-21T18:37:29.556Z,10.70
2023-04-21T18:39:50.961Z,10.43
2023-04-21T18:42:12.049Z,9.60
2023-04-21T18:44:33.166Z,9.47
2023-04-21T18:46:54.785Z,9.33
2023-04-21T18:49:17.477Z,9.67
2023-04-21T18:51:38.800Z,8.93
2023-04-21T18:54:00.155Z,7.97
2023-04-21T18:56:21.952Z,7.90
2023-04-21T18:58:43.391Z,8.63
2023-04-21T19:01:04.720Z,7.43
2023-04-21T19:03:26.463Z,7.83
2023-04-21T19:05:49.339Z,7.80
2023-04-21T19:08:10.788Z,7.87
2023-04-21T19:10:34.260Z,7.60
2023-04-21T19:12:55.856Z,7.20
2023-04-21T19:15:16.725Z,7.27
2023-04-21T19:17:38.034Z,7.43
2023-04-21T19:19:59.518Z,7.30
2023-04-21T19:22:21.782Z,7.20
2023-04-21T19:24:43.288Z,6.90
2023-04-21T19:27:06.111Z,6.97
2023-04-21T19:29:27.159Z,6.83
2023-04-21T19:31:48.796Z,6.23
2023-04-21T19:34:10.045Z,7.20
2023-04-21T19:36:31.492Z,6.47
2023-04-21T19:38:54.224Z,6.87
2023-04-21T19:41:15.550Z,6.80
2023-04-21T19:43:36.899Z,6.20
2023-04-21T19:45:58.628Z,7.97
2023-04-21T19:48:20.372Z,6.23
2023-04-21T19:50:41.602Z,7.40
2023-04-21T19:53:02.943Z,7.20
2023-04-21T19:55:25.571Z,7.40
2023-04-21T19:57:47.107Z,6.83
2023-04-21T20:00:11.268Z,7.40
2023-04-21T20:02:32.797Z,7.17
2023-04-21T20:04:54.486Z,7.23
2023-04-21T20:07:15.653Z,7.13
2023-04-21T20:09:37.123Z,7.30
2023-04-21T20:11:59.777Z,6.87
2023-04-21T20:14:21.347Z,7.07
2023-04-21T20:16:45.559Z,6.73
2023-04-21T20:19:08.986Z,7.60
2023-04-21T20:21:30.287Z,8.20
2023-04-21T20:23:51.932Z,8.33
2023-04-21T20:26:13.411Z,7.97
2023-04-21T20:28:36.424Z,8.07
2023-04-21T20:30:57.574Z,8.90
2023-04-21T20:33:18.835Z,8.63
2023-04-21T20:35:43.905Z,10.60
2023-04-21T20:38:05.701Z,9.83
2023-04-21T20:40:26.631Z,9.13
2023-04-21T20:42:48.579Z,9.50
2023-04-21T20:45:11.626Z,8.50
2023-04-21T20:47:33.579Z,7.43
2023-04-21T20:49:54.962Z,7.00
2023-04-21T20:52:16.272Z,7.30
2023-04-21T20:54:38.344Z,7.37
2023-04-21T20:56:59.750Z,7.10
2023-04-21T20:59:21.104Z,7.07
2023-04-21T21:01:44.677Z,7.97
2023-04-21T21:04:06.094Z,7.03
2023-04-21T21:06:27.340Z,6.57
2023-04-21T21:08:48.584Z,6.27
2023-04-21T21:11:09.763Z,6.87
2023-04-21T21:13:31.195Z,6.73
2023-04-21T21:15:52.731Z,7.00
2023-04-21T21:18:15.032Z,7.77
2023-04-21T21:20:36.466Z,7.10
2023-04-21T21:22:58.026Z,6.90
2023-04-21T21:25:19.515Z,6.90
2023-04-21T21:27:40.871Z,6.10
2023-04-21T21:30:02.669Z,7.37
2023-04-21T21:32:23.716Z,7.77
2023-04-21T21:34:46.580Z,6.93
2023-04-21T21:37:07.902Z,8.33
2023-04-21T21:39:29.040Z,7.70
2023-04-21T21:41:51.097Z,7.40
2023-04-21T21:44:12.261Z,7.57
2023-04-21T21:46:33.601Z,7.33
2023-04-21T21:48:54.873Z,6.57
2023-04-21T21:51:17.742Z,6.50
2023-04-21T21:53:38.945Z,6.27
2023-04-21T21:56:00.654Z,6.37
2023-04-21T21:58:21.874Z,7.60
2023-04-21T22:00:43.476Z,7.47
2023-04-21T22:03:04.853Z,6.70
2023-04-21T22:05:25.939Z,6.73
2023-04-21T22:07:49.374Z,7.20
2023-04-21T22:10:11.440Z,7.50
2023-04-21T22:12:33.014Z,7.20
2023-04-21T22:14:54.430Z,7.20
2023-04-21T22:17:15.896Z,7.00
2023-04-21T22:19:38.216Z,7.43
2023-04-21T22:21:59.588Z,6.70
2023-04-21T22:24:22.160Z,7.00
2023-04-21T22:26:43.906Z,6.30
2023-04-21T22:29:05.253Z,6.90
2023-04-21T22:31:26.731Z,7.07
2023-04-21T22:33:48.108Z,6.83
2023-04-21T22:36:10.050Z,8.03
2023-04-21T22:38:31.425Z,6.87
2023-04-21T22:40:54.115Z,6.87
2023-04-21T22:43:15.366Z,7.50
2023-04-21T22:45:36.589Z,7.43
2023-04-21T22:47:57.959Z,7.20
2023-04-21T22:50:20.064Z,6.73
2023-04-21T22:52:41.071Z,6.40
2023-04-21T22:55:02.299Z,7.17
2023-04-21T22:57:25.371Z,7.80
2023-04-21T22:59:46.465Z,7.47
2023-04-21T23:02:08.035Z,6.93
2023-04-21T23:04:29.228Z,7.57
2023-04-21T23:06:50.496Z,7.57
2023-04-21T23:09:11.912Z,7.37
2023-04-21T23:11:33.263Z,7.13
2023-04-21T23:13:57.190Z,7.40
2023-04-21T23:16:18.273Z,7.30
2023-04-21T23:18:39.344Z,7.73
2023-04-21T23:21:00.901Z,7.60
2023-04-21T23:23:22.673Z,7.40
2023-04-21T23:25:43.563Z,11.17
2023-04-21T23:28:05.029Z,11.10
2023-04-21T23:30:27.587Z,11.77
2023-04-21T23:32:48.755Z,10.60
2023-04-21T23:35:10.550Z,10.50
2023-04-21T23:37:31.367Z,11.27
2023-04-21T23:39:52.760Z,11.00
2023-04-21T23:42:13.956Z,10.40
2023-04-21T23:44:37.237Z,10.00
2023-04-21T23:46:59.586Z,10.10
2023-04-21T23:49:20.603Z,10.57
2023-04-21T23:51:42.068Z,9.53
2023-04-21T23:54:03.244Z,9.90
2023-04-21T23:56:24.569Z,9.57
2023-04-21T23:58:45.819Z,8.33
